Time;durP1;ratioP1;P1;durP2;ratioP2;P2;SDS_P1;SDS_P2;PMS_P1;PMS_P2;Temp;Humidity;BMP_temperature;BMP_pressure;BME280_temperature;BME280_humidity;BME280_pressure;Samples;Min_cycle;Max_cycle;Signal;HPM_P1;HPM_P2
2022/09/21 00:01:32;;;;;;;8.00;3.45;;;;;;;;;;5007771;28;20403;-82
2022/09/21 00:03:59;;;;;;;7.50;3.63;;;;;;;;;;5015969;28;20053;-83
2022/09/21 00:06:27;;;;;;;7.22;3.60;;;;;;;;;;5015554;28;20064;-81
2022/09/21 00:08:55;;;;;;;7.28;3.45;;;;;;;;;;5020719;28;20107;-81
2022/09/21 00:11:23;;;;;;;8.70;3.40;;;;;;;;;;5015296;28;20053;-83
2022/09/21 00:14:00;;;;;;;6.07;3.58;;;;;;;;;;5014683;28;20080;-83
2022/09/21 00:16:26;;;;;;;8.65;3.83;;;;;;;;;;4997910;28;20042;-81
2022/09/21 00:18:53;;;;;;;5.57;3.15;;;;;;;;;;5015243;28;20076;-83
2022/09/21 00:21:20;;;;;;;8.90;3.88;;;;;;;;;;5015368;28;20054;-82
2022/09/21 00:23:47;;;;;;;7.20;3.97;;;;;;;;;;5014725;28;20120;-82
2022/09/21 00:26:15;;;;;;;8.52;4.20;;;;;;;;;;5012459;28;20505;-82
2022/09/21 00:28:43;;;;;;;11.63;4.13;;;;;;;;;;5012718;28;20058;-82
2022/09/21 00:31:11;;;;;;;9.02;4.13;;;;;;;;;;5012832;28;20046;-82
2022/09/21 00:33:38;;;;;;;8.13;4.35;;;;;;;;;;5013536;28;20069;-82
2022/09/21 00:36:06;;;;;;;6.75;3.75;;;;;;;;;;5013250;28;20068;-82
2022/09/21 00:38:33;;;;;;;7.35;3.90;;;;;;;;;;5013257;28;20049;-83
2022/09/21 00:40:59;;;;;;;10.88;4.20;;;;;;;;;;5013996;28;20053;-82
2022/09/21 00:43:26;;;;;;;9.88;4.00;;;;;;;;;;5013779;28;20050;-82
2022/09/21 00:46:00;;;;;;;9.38;4.22;;;;;;;;;;5013945;28;20054;-83
2022/09/21 00:48:27;;;;;;;9.93;4.63;;;;;;;;;;5020434;28;20104;-82
2022/09/21 00:50:55;;;;;;;9.13;4.18;;;;;;;;;;5028039;28;20057;-82
2022/09/21 00:53:22;;;;;;;7.22;4.03;;;;;;;;;;5028215;28;20053;-81
2022/09/21 00:55:50;;;;;;;9.82;4.47;;;;;;;;;;5012109;28;20050;-83
2022/09/21 00:58:19;;;;;;;6.70;4.07;;;;;;;;;;4992544;28;20137;-82
2022/09/21 01:00:46;;;;;;;8.82;3.78;;;;;;;;;;4992957;28;20055;-81
2022/09/21 01:03:12;;;;;;;7.18;3.70;;;;;;;;;;4991469;28;20551;-80
2022/09/21 01:05:39;;;;;;;9.13;4.32;;;;;;;;;;4995867;28;20061;-79
2022/09/21 01:08:06;;;;;;;8.82;4.40;;;;;;;;;;4997736;28;20050;-82
2022/09/21 01:10:59;;;;;;;9.43;4.30;;;;;;;;;;4994702;28;20145;-81
2022/09/21 01:13:39;;;;;;;9.38;4.60;;;;;;;;;;4992455;28;20093;-82
2022/09/21 01:16:14;;;;;;;10.75;4.47;;;;;;;;;;4994416;28;20053;-82
2022/09/21 01:19:13;;;;;;;9.20;4.95;;;;;;;;;;4975855;28;20049;-81
2022/09/21 01:21:51;;;;;;;7.50;4.65;;;;;;;;;;4971387;28;20046;-80
2022/09/21 01:24:31;;;;;;;9.25;4.25;;;;;;;;;;4993390;28;20058;-81
2022/09/21 01:27:03;;;;;;;9.55;4.88;;;;;;;;;;4994447;28;20141;-82
2022/09/21 01:29:38;;;;;;;9.00;5.05;;;;;;;;;;4993133;28;20468;-82
2022/09/21 01:32:05;;;;;;;;;;;;;;;;;;4994962;28;20046;-83
2022/09/21 01:34:42;;;;;;;9.48;5.03;;;;;;;;;;4994200;28;19928;-82
2022/09/21 01:37:12;;;;;;;18.30;5.45;;;;;;;;;;4995061;28;20054;-83
2022/09/21 01:39:40;;;;;;;9.30;5.03;;;;;;;;;;4995052;28;20054;-83
2022/09/21 01:42:08;;;;;;;12.57;5.55;;;;;;;;;;4993266;28;20050;-82
2022/09/21 01:44:34;;;;;;;12.40;5.10;;;;;;;;;;4992757;28;20087;-81
2022/09/21 01:47:02;;;;;;;7.90;4.72;;;;;;;;;;4977602;28;20050;-80
2022/09/21 01:49:31;;;;;;;11.80;5.20;;;;;;;;;;4975344;28;20053;-81
2022/09/21 01:52:00;;;;;;;10.00;5.25;;;;;;;;;;4993519;28;20541;-81
2022/09/21 01:54:33;;;;;;;11.65;5.53;;;;;;;;;;4994037;28;20078;-81
2022/09/21 01:57:08;;;;;;;11.45;6.18;;;;;;;;;;4992221;28;20042;-81
2022/09/21 01:59:41;;;;;;;13.52;5.75;;;;;;;;;;4990426;28;20490;-80
2022/09/21 02:02:11;;;;;;;11.20;6.05;;;;;;;;;;4991334;28;20153;-81
2022/09/21 02:04:38;;;;;;;12.05;6.28;;;;;;;;;;4991432;28;20058;-81
2022/09/21 02:07:06;;;;;;;13.77;5.85;;;;;;;;;;4991494;28;20060;-81
2022/09/21 02:09:33;;;;;;;9.63;5.35;;;;;;;;;;4989821;28;20065;-80
2022/09/21 02:12:01;;;;;;;9.98;5.43;;;;;;;;;;4973488;28;20057;-80
2022/09/21 02:14:27;;;;;;;13.10;5.43;;;;;;;;;;4991217;28;20410;-81
2022/09/21 02:17:06;;;;;;;10.38;5.60;;;;;;;;;;4990925;28;20478;-81
2022/09/21 02:19:38;;;;;;;11.52;5.80;;;;;;;;;;4990512;28;20055;-81
2022/09/21 02:22:25;;;;;;;15.25;6.20;;;;;;;;;;4990550;28;20058;-81
2022/09/21 02:25:12;;;;;;;8.75;5.80;;;;;;;;;;4972703;28;20054;-82
2022/09/21 02:27:51;;;;;;;13.77;6.35;;;;;;;;;;4990603;28;20057;-80
2022/09/21 02:30:21;;;;;;;11.48;5.47;;;;;;;;;;4990188;28;20050;-82
2022/09/21 02:32:49;;;;;;;13.18;6.00;;;;;;;;;;4973669;28;20062;-81
2022/09/21 02:35:29;;;;;;;12.77;6.45;;;;;;;;;;4991895;28;20077;-81
2022/09/21 02:38:14;;;;;;;11.98;6.10;;;;;;;;;;4991148;28;20046;-81
2022/09/21 02:40:46;;;;;;;13.45;6.25;;;;;;;;;;4996108;28;20214;-81
2022/09/21 02:43:20;;;;;;;11.93;6.05;;;;;;;;;;4998282;28;20054;-81
2022/09/21 02:45:58;;;;;;;15.07;6.53;;;;;;;;;;4999450;28;20050;-80
2022/09/21 02:48:32;;;;;;;14.05;6.15;;;;;;;;;;4998792;28;20495;-82
2022/09/21 02:51:03;;;;;;;10.73;5.28;;;;;;;;;;5002122;28;20061;-82
2022/09/21 02:53:31;;;;;;;14.73;6.20;;;;;;;;;;5001909;28;20047;-83
2022/09/21 02:56:01;;;;;;;16.20;7.78;;;;;;;;;;5003357;28;20061;-83
2022/09/21 02:58:29;;;;;;;13.95;6.32;;;;;;;;;;4993946;28;20065;-82
2022/09/21 03:00:56;;;;;;;15.77;7.05;;;;;;;;;;4979377;28;20076;-83
2022/09/21 03:03:23;;;;;;;12.38;6.32;;;;;;;;;;4979926;28;20105;-80
2022/09/21 03:05:51;;;;;;;14.50;6.85;;;;;;;;;;4979570;28;20054;-81
2022/09/21 03:08:18;;;;;;;12.93;6.55;;;;;;;;;;4959646;28;20051;-80
2022/09/21 03:10:45;;;;;;;12.30;6.55;;;;;;;;;;4976735;28;20043;-80
2022/09/21 03:13:11;;;;;;;16.13;6.75;;;;;;;;;;4977014;28;20050;-82
2022/09/21 03:15:38;;;;;;;15.70;6.47;;;;;;;;;;4977175;28;20058;-81
2022/09/21 03:18:08;;;;;;;13.48;6.22;;;;;;;;;;4976752;28;20134;-81
2022/09/21 03:20:35;;;;;;;16.58;6.63;;;;;;;;;;4977595;28;20073;-82
2022/09/21 03:23:02;;;;;;;14.85;7.20;;;;;;;;;;4961715;28;20053;-83
2022/09/21 03:25:29;;;;;;;15.85;7.35;;;;;;;;;;4977496;28;20051;-83
2022/09/21 03:27:56;;;;;;;12.70;7.43;;;;;;;;;;4977519;28;20141;-83
2022/09/21 03:30:24;;;;;;;13.68;6.68;;;;;;;;;;4959864;28;20051;-81
2022/09/21 03:32:51;;;;;;;13.48;6.10;;;;;;;;;;4995808;28;20058;-81
2022/09/21 03:35:18;;;;;;;13.20;6.50;;;;;;;;;;4994583;28;20661;-80
2022/09/21 03:37:45;;;;;;;14.98;6.88;;;;;;;;;;4997122;28;20065;-82
2022/09/21 03:40:11;;;;;;;12.25;6.68;;;;;;;;;;4996118;28;20437;-82
2022/09/21 03:42:41;;;;;;;11.50;6.80;;;;;;;;;;4996930;28;20116;-81
2022/09/21 03:45:09;;;;;;;11.13;6.55;;;;;;;;;;4997381;28;20525;-80
2022/09/21 03:47:36;;;;;;;12.23;6.70;;;;;;;;;;4998054;28;20620;-80
2022/09/21 03:50:03;;;;;;;12.02;6.40;;;;;;;;;;4996269;28;20086;-81
2022/09/21 03:52:36;;;;;;;11.68;5.90;;;;;;;;;;4991220;28;20046;-81
2022/09/21 03:55:05;;;;;;;9.88;5.90;;;;;;;;;;4994077;28;20051;-82
2022/09/21 03:57:33;;;;;;;8.63;5.50;;;;;;;;;;4994639;28;20047;-81
2022/09/21 04:00:01;;;;;;;12.73;7.45;;;;;;;;;;4975573;28;20062;-81
2022/09/21 04:02:27;;;;;;;14.65;7.80;;;;;;;;;;4993368;28;20057;-82
2022/09/21 04:04:53;;;;;;;15.93;7.00;;;;;;;;;;4994562;28;20050;-82
2022/09/21 04:07:20;;;;;;;12.30;7.13;;;;;;;;;;4994751;28;20073;-82
2022/09/21 04:09:49;;;;;;;15.50;7.43;;;;;;;;;;5000676;28;20054;-82
2022/09/21 04:12:15;;;;;;;11.50;6.35;;;;;;;;;;5010668;28;20049;-81
2022/09/21 04:14:42;;;;;;;14.13;6.57;;;;;;;;;;5010642;28;20113;-82
2022/09/21 04:17:08;;;;;;;15.60;7.18;;;;;;;;;;4978053;28;20042;-83
2022/09/21 04:19:37;;;;;;;14.32;7.07;;;;;;;;;;4993689;28;20133;-82
2022/09/21 04:22:04;;;;;;;11.90;6.45;;;;;;;;;;4976670;28;20072;-80
2022/09/21 04:24:30;;;;;;;11.00;6.25;;;;;;;;;;4994143;28;20050;-81
2022/09/21 04:26:57;;;;;;;13.90;6.93;;;;;;;;;;4976863;28;20129;-81
2022/09/21 04:29:24;;;;;;;10.27;6.63;;;;;;;;;;4994059;28;20065;-82
2022/09/21 04:31:50;;;;;;;18.33;6.90;;;;;;;;;;4993631;28;20043;-82
2022/09/21 04:34:17;;;;;;;11.02;6.10;;;;;;;;;;4994345;28;20068;-80
2022/09/21 04:36:44;;;;;;;12.63;6.72;;;;;;;;;;4994310;28;20057;-81
2022/09/21 04:39:11;;;;;;;9.88;6.28;;;;;;;;;;4994080;28;20049;-80
2022/09/21 04:41:37;;;;;;;14.13;7.57;;;;;;;;;;4994753;28;20058;-80
2022/09/21 04:44:03;;;;;;;11.68;6.82;;;;;;;;;;4996993;28;20069;-83
2022/09/21 04:46:30;;;;;;;15.98;7.03;;;;;;;;;;4977871;28;20053;-80
2022/09/21 04:48:56;;;;;;;17.25;8.02;;;;;;;;;;4993237;28;20076;-82
2022/09/21 04:51:23;;;;;;;18.00;7.57;;;;;;;;;;4992892;28;20141;-82
2022/09/21 04:53:50;;;;;;;13.98;7.32;;;;;;;;;;4996333;28;20148;-80
2022/09/21 04:56:16;;;;;;;16.27;8.48;;;;;;;;;;5002380;28;20057;-80
2022/09/21 04:58:43;;;;;;;14.35;7.63;;;;;;;;;;5000062;28;20043;-81
2022/09/21 05:01:10;;;;;;;16.52;9.30;;;;;;;;;;4994364;28;20331;-81
2022/09/21 05:03:37;;;;;;;21.75;8.90;;;;;;;;;;4994382;28;20058;-79
2022/09/21 05:06:04;;;;;;;17.23;9.82;;;;;;;;;;4994057;28;20050;-82
2022/09/21 05:11:17;;;;;;;18.97;7.63;;;;;;;;;;4993212;28;20046;-82
2022/09/21 05:13:44;;;;;;;12.45;6.95;;;;;;;;;;4998519;28;20303;-83
2022/09/21 05:16:10;;;;;;;14.07;7.95;;;;;;;;;;5004976;28;20287;-82
2022/09/21 05:18:37;;;;;;;14.18;8.10;;;;;;;;;;4997320;28;20058;-81
2022/09/21 05:21:03;;;;;;;16.45;8.45;;;;;;;;;;4997271;28;20065;-82
2022/09/21 05:23:30;;;;;;;16.60;8.30;;;;;;;;;;4998535;28;20066;-81
2022/09/21 05:25:57;;;;;;;14.60;8.23;;;;;;;;;;5014287;28;20410;-80
2022/09/21 05:28:24;;;;;;;17.33;9.10;;;;;;;;;;4999093;28;20065;-82
2022/09/21 05:31:20;;;;;;;18.00;9.20;;;;;;;;;;4999900;28;20077;-82
2022/09/21 05:33:51;;;;;;;26.00;9.27;;;;;;;;;;5001236;28;20054;-83
2022/09/21 05:36:31;;;;;;;18.80;9.00;;;;;;;;;;4982943;28;20110;-81
2022/09/21 05:38:58;;;;;;;16.63;9.00;;;;;;;;;;4998886;28;20121;-82
2022/09/21 05:41:24;;;;;;;15.85;9.35;;;;;;;;;;4997860;28;20054;-80
2022/09/21 05:43:51;;;;;;;17.50;9.80;;;;;;;;;;4997082;28;20114;-81
2022/09/21 05:46:19;;;;;;;17.73;9.32;;;;;;;;;;4997057;28;20096;-82
2022/09/21 05:48:51;;;;;;;19.70;9.25;;;;;;;;;;4978820;28;20046;-82
2022/09/21 05:51:28;;;;;;;22.38;10.98;;;;;;;;;;4998197;28;20047;-82
2022/09/21 05:54:02;;;;;;;21.50;9.50;;;;;;;;;;4998619;28;20074;-83
2022/09/21 05:56:44;;;;;;;25.50;9.68;;;;;;;;;;4998609;28;20133;-83
2022/09/21 05:59:19;;;;;;;18.75;9.82;;;;;;;;;;4980077;28;20145;-83
2022/09/21 06:02:04;;;;;;;18.27;9.25;;;;;;;;;;4998256;28;20051;-82
2022/09/21 06:04:30;;;;;;;19.38;9.02;;;;;;;;;;4997978;28;20062;-82
2022/09/21 06:06:57;;;;;;;18.40;9.63;;;;;;;;;;4996500;28;20069;-81
2022/09/21 06:09:24;;;;;;;20.92;10.40;;;;;;;;;;4998572;28;20508;-82
2022/09/21 06:11:51;;;;;;;19.75;10.07;;;;;;;;;;4998881;28;20046;-82
2022/09/21 06:14:23;;;;;;;23.63;9.52;;;;;;;;;;4996973;28;20042;-82
2022/09/21 06:16:50;;;;;;;18.88;9.75;;;;;;;;;;4999068;28;20052;-82
2022/09/21 06:19:16;;;;;;;23.30;9.65;;;;;;;;;;4998899;28;20042;-83
2022/09/21 06:21:43;;;;;;;21.77;10.40;;;;;;;;;;4980289;28;20061;-82
2022/09/21 06:24:10;;;;;;;19.17;9.98;;;;;;;;;;4998631;28;20068;-81
2022/09/21 06:26:37;;;;;;;16.48;8.77;;;;;;;;;;4997089;28;20054;-83
2022/09/21 06:29:03;;;;;;;22.80;9.18;;;;;;;;;;4996989;28;20058;-82
2022/09/21 06:31:29;;;;;;;21.40;9.77;;;;;;;;;;4998749;28;20167;-83
2022/09/21 06:33:56;;;;;;;19.92;10.60;;;;;;;;;;4997516;28;20046;-82
2022/09/21 06:36:22;;;;;;;18.50;9.35;;;;;;;;;;4998495;28;20054;-82
2022/09/21 06:38:49;;;;;;;17.67;9.75;;;;;;;;;;4981534;28;20216;-83
2022/09/21 06:41:15;;;;;;;26.25;10.10;;;;;;;;;;4999600;28;20050;-84
2022/09/21 06:43:46;;;;;;;20.60;10.18;;;;;;;;;;4998026;28;20497;-83
2022/09/21 06:46:12;;;;;;;20.90;11.35;;;;;;;;;;4977077;28;20050;-82
2022/09/21 06:48:39;;;;;;;26.33;12.38;;;;;;;;;;4977551;28;20053;-82
2022/09/21 06:51:05;;;;;;;21.40;11.55;;;;;;;;;;4996555;28;20046;-82
2022/09/21 06:53:32;;;;;;;27.55;10.50;;;;;;;;;;4996626;28;20051;-81
2022/09/21 06:56:03;;;;;;;27.17;10.90;;;;;;;;;;4998165;28;20050;-82
2022/09/21 06:58:30;;;;;;;26.00;11.13;;;;;;;;;;4978116;28;20561;-82
2022/09/21 07:00:56;;;;;;;26.73;10.10;;;;;;;;;;4996664;28;20137;-83
2022/09/21 07:03:24;;;;;;;22.85;8.98;;;;;;;;;;4996729;28;20050;-83
2022/09/21 07:05:50;;;;;;;22.50;8.60;;;;;;;;;;4997600;28;20054;-81
2022/09/21 07:08:16;;;;;;;21.98;8.90;;;;;;;;;;4995264;28;20125;-82
2022/09/21 07:11:03;;;;;;;22.08;8.13;;;;;;;;;;4995943;28;20054;-83
2022/09/21 07:13:29;;;;;;;20.27;8.55;;;;;;;;;;4996578;28;20072;-83
2022/09/21 07:15:56;;;;;;;17.67;7.18;;;;;;;;;;4980133;28;20050;-84
2022/09/21 07:18:22;;;;;;;16.55;6.93;;;;;;;;;;4996715;28;20054;-83
2022/09/21 07:20:48;;;;;;;14.18;6.78;;;;;;;;;;4981576;28;20046;-82
2022/09/21 07:23:16;;;;;;;13.75;6.43;;;;;;;;;;4982342;28;20137;-81
2022/09/21 07:25:51;;;;;;;14.68;5.88;;;;;;;;;;5000093;28;20054;-79
2022/09/21 07:28:18;;;;;;;13.67;5.90;;;;;;;;;;5001605;28;20064;-82
2022/09/21 07:30:44;;;;;;;15.68;6.25;;;;;;;;;;4986197;28;20691;-82
2022/09/21 07:33:10;;;;;;;12.07;5.50;;;;;;;;;;5017879;28;20114;-80
2022/09/21 07:35:37;;;;;;;12.52;4.78;;;;;;;;;;5001345;28;20042;-80
2022/09/21 07:38:04;;;;;;;14.50;5.20;;;;;;;;;;5004771;28;20046;-81
2022/09/21 07:40:31;;;;;;;12.48;5.00;;;;;;;;;;5000092;28;20050;-81
2022/09/21 07:42:58;;;;;;;11.52;5.25;;;;;;;;;;4999459;28;20054;-82
2022/09/21 07:45:25;;;;;;;10.63;5.22;;;;;;;;;;5000710;28;20055;-82
2022/09/21 07:47:55;;;;;;;12.45;4.80;;;;;;;;;;4982825;28;20106;-81
2022/09/21 07:50:22;;;;;;;12.77;5.22;;;;;;;;;;5000688;28;20050;-81
2022/09/21 07:52:48;;;;;;;14.50;5.45;;;;;;;;;;5001423;28;20049;-81
2022/09/21 07:55:15;;;;;;;13.40;4.95;;;;;;;;;;5001768;28;20113;-82
2022/09/21 08:00:31;;;;;;;11.27;5.17;;;;;;;;;;4996334;28;20135;-82
2022/09/21 08:03:00;;;;;;;12.02;5.50;;;;;;;;;;5000649;28;20285;-83
2022/09/21 08:05:26;;;;;;;14.88;5.70;;;;;;;;;;4985060;28;20129;-82
2022/09/21 08:07:56;;;;;;;18.65;6.13;;;;;;;;;;5001449;28;20126;-82
2022/09/21 08:10:24;;;;;;;19.17;6.22;;;;;;;;;;5002084;28;20046;-81
2022/09/21 08:12:50;;;;;;;10.07;5.10;;;;;;;;;;4984453;28;20042;-82
2022/09/21 08:15:17;;;;;;;12.98;5.60;;;;;;;;;;5001484;28;20077;-82
2022/09/21 08:18:06;;;;;;;12.38;5.13;;;;;;;;;;4999738;28;20054;-82
2022/09/21 08:20:33;;;;;;;15.75;5.80;;;;;;;;;;5001299;28;20074;-80
2022/09/21 08:22:59;;;;;;;13.50;5.50;;;;;;;;;;5000924;28;20070;-82
2022/09/21 08:25:29;;;;;;;13.02;5.20;;;;;;;;;;4997895;28;20051;-81
2022/09/21 08:27:59;;;;;;;11.05;4.70;;;;;;;;;;4998681;28;20599;-83
2022/09/21 08:30:27;;;;;;;10.07;4.90;;;;;;;;;;5000069;28;20137;-81
2022/09/21 08:32:54;;;;;;;13.20;4.95;;;;;;;;;;4983471;28;20554;-81
2022/09/21 08:35:20;;;;;;;12.43;4.70;;;;;;;;;;4981288;28;20053;-82
2022/09/21 08:37:46;;;;;;;10.75;4.47;;;;;;;;;;4998224;28;20050;-81
2022/09/21 08:40:15;;;;;;;11.55;4.50;;;;;;;;;;4999726;28;20486;-81
2022/09/21 08:42:48;;;;;;;9.25;4.80;;;;;;;;;;4983332;28;20089;-82
2022/09/21 08:45:17;;;;;;;10.65;3.97;;;;;;;;;;4985355;28;20050;-82
2022/09/21 08:47:49;;;;;;;9.80;3.97;;;;;;;;;;5004338;28;20137;-83
2022/09/21 08:50:18;;;;;;;11.57;3.97;;;;;;;;;;5000594;28;20061;-81
2022/09/21 08:52:45;;;;;;;12.20;4.03;;;;;;;;;;5001094;28;20081;-81
2022/09/21 08:55:17;;;;;;;11.65;4.35;;;;;;;;;;5001915;28;20053;-82
2022/09/21 08:57:44;;;;;;;9.38;4.00;;;;;;;;;;4998006;28;20107;-82
2022/09/21 09:00:17;;;;;;;10.57;4.20;;;;;;;;;;4981312;28;20146;-83
2022/09/21 09:03:03;;;;;;;9.23;3.90;;;;;;;;;;4967021;28;20118;-83
2022/09/21 09:05:36;;;;;;;8.60;3.58;;;;;;;;;;4964983;28;20061;-82
2022/09/21 09:08:18;;;;;;;9.63;3.50;;;;;;;;;;4964389;28;20073;-82
2022/09/21 09:10:59;;;;;;;10.60;3.10;;;;;;;;;;4980340;28;20059;-81
2022/09/21 09:13:25;;;;;;;11.30;3.90;;;;;;;;;;4964898;28;20055;-80
2022/09/21 09:15:51;;;;;;;12.63;3.40;;;;;;;;;;4982618;28;20076;-81
2022/09/21 09:18:18;;;;;;;8.30;3.00;;;;;;;;;;4983299;28;20042;-83
2022/09/21 09:20:46;;;;;;;9.07;3.60;;;;;;;;;;4981720;28;20053;-81
2022/09/21 09:23:45;;;;;;;8.55;3.45;;;;;;;;;;4980849;28;20075;-82
2022/09/21 09:26:18;;;;;;;11.18;3.53;;;;;;;;;;4949973;28;20051;-81
2022/09/21 09:28:47;;;;;;;8.45;3.38;;;;;;;;;;4983443;28;20074;-80
2022/09/21 09:31:21;;;;;;;9.88;2.80;;;;;;;;;;4982130;28;20534;-81
2022/09/21 09:33:52;;;;;;;9.20;3.75;;;;;;;;;;4981637;28;20066;-82
2022/09/21 09:36:19;;;;;;;6.97;3.47;;;;;;;;;;4964386;28;20047;-81
2022/09/21 09:39:11;;;;;;;13.82;3.80;;;;;;;;;;4970037;28;20051;-84
2022/09/21 09:41:50;;;;;;;12.43;3.30;;;;;;;;;;4964413;28;20467;-82
2022/09/21 09:44:37;;;;;;;10.07;3.45;;;;;;;;;;4981369;28;20065;-83
2022/09/21 09:47:07;;;;;;;8.00;2.72;;;;;;;;;;4983226;28;20066;-83
2022/09/21 09:49:49;;;;;;;6.45;1.98;;;;;;;;;;4980394;28;20138;-84
2022/09/21 09:52:16;;;;;;;7.93;1.95;;;;;;;;;;4982919;28;20053;-83
2022/09/21 09:54:42;;;;;;;9.43;3.20;;;;;;;;;;4965577;28;20051;-84
2022/09/21 09:57:09;;;;;;;7.22;3.58;;;;;;;;;;4981065;28;20123;-82
2022/09/21 09:59:48;;;;;;;8.48;3.20;;;;;;;;;;5003510;28;20042;-82
2022/09/21 10:02:20;;;;;;;7.60;2.50;;;;;;;;;;5001886;28;20115;-80
2022/09/21 10:05:00;;;;;;;10.90;3.17;;;;;;;;;;5001068;28;20054;-83
2022/09/21 10:07:56;;;;;;;5.88;2.03;;;;;;;;;;4985830;28;20073;-81
2022/09/21 10:10:28;;;;;;;6.57;2.50;;;;;;;;;;4994399;28;20050;-83
2022/09/21 10:13:00;;;;;;;7.47;2.25;;;;;;;;;;5001487;28;20054;-82
2022/09/21 10:15:28;;;;;;;5.82;2.00;;;;;;;;;;5001402;28;20113;-82
2022/09/21 10:18:06;;;;;;;5.78;1.90;;;;;;;;;;5001093;28;20137;-80
2022/09/21 10:20:33;;;;;;;5.43;1.58;;;;;;;;;;5000974;28;20046;-81
2022/09/21 10:23:00;;;;;;;3.72;1.50;;;;;;;;;;5001013;28;20241;-83
2022/09/21 10:25:26;;;;;;;5.85;1.63;;;;;;;;;;4999821;28;20196;-83
2022/09/21 10:27:54;;;;;;;5.32;1.90;;;;;;;;;;5000609;28;20048;-83
2022/09/21 10:30:29;;;;;;;5.57;2.13;;;;;;;;;;5000401;28;20046;-81
2022/09/21 10:32:56;;;;;;;9.27;2.13;;;;;;;;;;4985026;28;20061;-81
2022/09/21 10:35:24;;;;;;;7.60;1.65;;;;;;;;;;4983472;28;20049;-81
2022/09/21 10:38:09;;;;;;;8.35;2.60;;;;;;;;;;4982643;28;20046;-81
2022/09/21 10:40:37;;;;;;;4.85;1.52;;;;;;;;;;4999429;28;20242;-82
2022/09/21 10:43:03;;;;;;;4.72;1.40;;;;;;;;;;5000916;28;20058;-82
2022/09/21 10:45:31;;;;;;;6.18;1.20;;;;;;;;;;5001906;28;20054;-81
2022/09/21 10:48:08;;;;;;;8.13;1.80;;;;;;;;;;5000813;28;20117;-85
2022/09/21 10:50:39;;;;;;;3.97;1.67;;;;;;;;;;5008560;28;20252;-83
2022/09/21 10:53:08;;;;;;;3.30;1.17;;;;;;;;;;5014856;28;20050;-82
2022/09/21 10:55:42;;;;;;;3.30;1.30;;;;;;;;;;5010108;28;20042;-82
2022/09/21 10:58:29;;;;;;;5.70;1.70;;;;;;;;;;4988498;28;20142;-84
2022/09/21 11:01:08;;;;;;;6.18;1.48;;;;;;;;;;4963499;28;20054;-82
2022/09/21 11:03:34;;;;;;;5.40;1.60;;;;;;;;;;4965576;28;20081;-83
2022/09/21 11:06:07;;;;;;;6.55;1.75;;;;;;;;;;4966902;28;20066;-83
2022/09/21 11:08:36;;;;;;;6.00;1.88;;;;;;;;;;4984581;28;20523;-84
2022/09/21 11:11:24;;;;;;;4.22;1.38;;;;;;;;;;4981284;28;20110;-81
2022/09/21 11:13:59;;;;;;;2.85;1.02;;;;;;;;;;4983774;28;20371;-84
2022/09/21 11:16:26;;;;;;;2.28;0.77;;;;;;;;;;4986361;28;20110;-82
2022/09/21 11:18:58;;;;;;;4.05;1.27;;;;;;;;;;4968024;28;20282;-83
2022/09/21 11:21:37;;;;;;;4.57;1.60;;;;;;;;;;4981402;28;20047;-83
2022/09/21 11:24:14;;;;;;;2.78;0.98;;;;;;;;;;4979926;28;20061;-84
2022/09/21 11:26:53;;;;;;;5.07;1.00;;;;;;;;;;4980549;28;20144;-84
2022/09/21 11:29:23;;;;;;;3.35;0.95;;;;;;;;;;4978896;28;20494;-84
2022/09/21 11:31:54;;;;;;;3.22;1.20;;;;;;;;;;4962753;28;20048;-82
2022/09/21 11:34:20;;;;;;;3.05;0.95;;;;;;;;;;4981594;28;20479;-83
2022/09/21 11:36:47;;;;;;;6.57;1.60;;;;;;;;;;4982966;28;20046;-83
2022/09/21 11:39:20;;;;;;;4.63;1.13;;;;;;;;;;4981592;28;20142;-83
2022/09/21 11:41:52;;;;;;;6.50;1.63;;;;;;;;;;4980837;28;20130;-81
2022/09/21 11:44:19;;;;;;;3.67;1.27;;;;;;;;;;4982285;28;20050;-82
2022/09/21 11:46:48;;;;;;;2.80;1.00;;;;;;;;;;4981891;28;20154;-81
2022/09/21 11:49:31;;;;;;;1.50;0.60;;;;;;;;;;4964452;28;20065;-80
2022/09/21 11:51:58;;;;;;;4.50;1.27;;;;;;;;;;4983737;28;20503;-82
2022/09/21 11:54:39;;;;;;;2.38;0.70;;;;;;;;;;4981882;28;20243;-81
2022/09/21 11:57:18;;;;;;;4.78;0.95;;;;;;;;;;4965734;28;20071;-82
2022/09/21 11:59:47;;;;;;;3.10;0.77;;;;;;;;;;4982520;28;20076;-84
2022/09/21 12:02:20;;;;;;;5.15;0.80;;;;;;;;;;4966101;28;20411;-83
2022/09/21 12:04:57;;;;;;;2.00;0.90;;;;;;;;;;4981416;28;20051;-82
2022/09/21 12:07:39;;;;;;;2.78;0.60;;;;;;;;;;4984026;28;20420;-81
2022/09/21 12:10:24;;;;;;;3.65;0.80;;;;;;;;;;4966227;28;20067;-82
2022/09/21 12:12:54;;;;;;;2.40;0.70;;;;;;;;;;4982596;28;20058;-81
2022/09/21 12:15:25;;;;;;;2.65;0.70;;;;;;;;;;4983752;28;20051;-82
2022/09/21 12:17:51;;;;;;;2.13;0.63;;;;;;;;;;4983641;28;20074;-82
2022/09/21 12:20:24;;;;;;;4.45;0.90;;;;;;;;;;4963926;28;20111;-81
2022/09/21 12:22:57;;;;;;;2.33;0.82;;;;;;;;;;4982200;28;20043;-82
2022/09/21 12:25:39;;;;;;;1.98;0.63;;;;;;;;;;4981559;28;20046;-81
2022/09/21 12:28:16;;;;;;;3.10;0.88;;;;;;;;;;4982142;28;20146;-82
2022/09/21 12:30:47;;;;;;;2.53;0.70;;;;;;;;;;4982351;28;20531;-81
2022/09/21 12:33:13;;;;;;;4.80;1.00;;;;;;;;;;4983380;28;20057;-83
2022/09/21 12:35:40;;;;;;;4.70;0.93;;;;;;;;;;4985139;28;20070;-82
2022/09/21 12:38:12;;;;;;;1.00;0.50;;;;;;;;;;4983222;28;20093;-81
2022/09/21 12:40:51;;;;;;;2.88;1.00;;;;;;;;;;4983434;28;20051;-83
2022/09/21 12:43:24;;;;;;;3.80;0.68;;;;;;;;;;4981648;28;20050;-83
2022/09/21 12:45:57;;;;;;;2.53;0.70;;;;;;;;;;4983252;28;20110;-83
2022/09/21 12:48:31;;;;;;;2.42;0.88;;;;;;;;;;4964617;28;20442;-82
2022/09/21 12:50:58;;;;;;;4.43;0.90;;;;;;;;;;4982271;28;20057;-84
2022/09/21 12:53:33;;;;;;;3.40;1.17;;;;;;;;;;4963420;28;20047;-82
2022/09/21 12:56:02;;;;;;;3.80;0.90;;;;;;;;;;4981429;28;20118;-83
2022/09/21 12:58:40;;;;;;;2.85;0.80;;;;;;;;;;4992855;28;20106;-82
2022/09/21 13:01:10;;;;;;;4.28;0.95;;;;;;;;;;4999856;28;20399;-84
2022/09/21 13:03:44;;;;;;;4.57;0.95;;;;;;;;;;5000592;28;20097;-82
2022/09/21 13:06:30;;;;;;;1.77;0.68;;;;;;;;;;5001304;28;20499;-83
2022/09/21 13:08:59;;;;;;;2.97;0.80;;;;;;;;;;5001311;28;20423;-82
2022/09/21 13:11:33;;;;;;;2.83;0.70;;;;;;;;;;5000520;28;20522;-82
2022/09/21 13:14:01;;;;;;;1.33;0.52;;;;;;;;;;5000301;28;20392;-82
2022/09/21 13:16:29;;;;;;;2.13;0.73;;;;;;;;;;4984541;28;20053;-81
2022/09/21 13:18:58;;;;;;;2.97;0.82;;;;;;;;;;5002215;28;20056;-83
2022/09/21 13:21:25;;;;;;;1.98;0.45;;;;;;;;;;5001410;28;20110;-82
2022/09/21 13:23:54;;;;;;;3.28;0.90;;;;;;;;;;4998927;28;20054;-82
2022/09/21 13:26:30;;;;;;;5.97;0.70;;;;;;;;;;5000263;28;20077;-82
2022/09/21 13:28:56;;;;;;;4.38;0.82;;;;;;;;;;5000199;28;20058;-82
2022/09/21 13:31:42;;;;;;;6.15;1.17;;;;;;;;;;5000394;28;20050;-81
2022/09/21 13:34:14;;;;;;;1.50;0.70;;;;;;;;;;4998530;28;20494;-81
2022/09/21 13:36:42;;;;;;;5.63;1.70;;;;;;;;;;4995203;28;20414;-83
2022/09/21 13:39:08;;;;;;;1.38;0.75;;;;;;;;;;4995882;28;20141;-82
2022/09/21 13:41:36;;;;;;;5.28;2.00;;;;;;;;;;4997823;28;20508;-82
2022/09/21 13:44:45;;;;;;;12.20;3.40;;;;;;;;;;4999157;28;20061;-82
2022/09/21 13:47:13;;;;;;;4.50;0.93;;;;;;;;;;4978705;28;20050;-81
2022/09/21 13:49:44;;;;;;;4.03;0.80;;;;;;;;;;4984252;28;20054;-82
2022/09/21 13:52:14;;;;;;;4.47;0.68;;;;;;;;;;4981227;28;20050;-83
2022/09/21 13:54:44;;;;;;;3.80;1.00;;;;;;;;;;4998775;28;20050;-81
2022/09/21 13:57:16;;;;;;;2.22;0.60;;;;;;;;;;4981224;28;20069;-82
2022/09/21 13:59:44;;;;;;;2.80;0.63;;;;;;;;;;4977753;28;20138;-82
2022/09/21 14:02:24;;;;;;;2.28;0.57;;;;;;;;;;4995642;28;20578;-83
2022/09/21 14:04:51;;;;;;;1.85;0.60;;;;;;;;;;4993445;28;20061;-81
2022/09/21 14:07:18;;;;;;;1.58;0.60;;;;;;;;;;5004006;28;20062;-83
2022/09/21 14:09:56;;;;;;;2.78;0.77;;;;;;;;;;4998606;28;20041;-83
2022/09/21 14:12:24;;;;;;;2.17;0.70;;;;;;;;;;5003524;28;20106;-82
2022/09/21 14:15:28;;;;;;;2.00;0.80;;;;;;;;;;5000907;28;20046;-79
2022/09/21 14:18:25;;;;;;;3.50;0.80;;;;;;;;;;4999858;28;20061;-81
2022/09/21 14:21:18;;;;;;;3.40;0.88;;;;;;;;;;4973067;28;20530;-82
2022/09/21 14:24:03;;;;;;;4.03;0.82;;;;;;;;;;4996015;28;20050;-82
2022/09/21 14:26:40;;;;;;;6.15;1.10;;;;;;;;;;4979714;28;20498;-79
2022/09/21 14:29:25;;;;;;;9.70;1.15;;;;;;;;;;4998794;28;20054;-81
2022/09/21 14:31:54;;;;;;;3.15;0.90;;;;;;;;;;4999704;28;20048;-81
2022/09/21 14:34:24;;;;;;;3.58;1.00;;;;;;;;;;4979040;28;20042;-81
2022/09/21 14:36:53;;;;;;;5.07;0.80;;;;;;;;;;4979591;28;20057;-82
2022/09/21 14:39:24;;;;;;;7.32;0.68;;;;;;;;;;4975299;28;20046;-81
2022/09/21 14:41:53;;;;;;;2.47;0.60;;;;;;;;;;4992811;28;20611;-81
2022/09/21 14:44:21;;;;;;;2.22;0.75;;;;;;;;;;4994552;28;20046;-81
2022/09/21 14:46:58;;;;;;;2.13;0.50;;;;;;;;;;4993671;28;20068;-82
2022/09/21 14:49:37;;;;;;;4.82;0.77;;;;;;;;;;4990095;28;20057;-81
2022/09/21 14:52:27;;;;;;;3.05;0.80;;;;;;;;;;4971452;28;20046;-80
2022/09/21 14:55:00;;;;;;;2.67;0.70;;;;;;;;;;4993055;28;20050;-81
2022/09/21 14:57:48;;;;;;;3.03;0.52;;;;;;;;;;4978732;28;20054;-82
2022/09/21 15:00:20;;;;;;;4.53;0.75;;;;;;;;;;4988512;28;20046;-82
2022/09/21 15:02:51;;;;;;;1.48;0.52;;;;;;;;;;4975219;28;20153;-83
2022/09/21 15:05:17;;;;;;;3.40;0.80;;;;;;;;;;4979394;28;20169;-82